NO-0002 weather

Maarud
Hedmark, Norway

Public forecast

Using degrees Celsius for public forecast. Weather courtesy of forecast.io.

Closest aviation weather report (METAR) to Maarud

Closest report is Oslo Gardermoen Airport, 13.9 nm (25.7 km) W. Retrieved 2020/02/24 20:50 UTC (34 minutes ago):

ENGM 242050Z 36003KT CAVOK M03/M06 Q1000 NOSIG

Closest aviation forecast (TAF) to Maarud

Closest forecast is Oslo Gardermoen Airport, 13.9 nm (25.7 km) W. Retrieved 2020/02/24 18:57 UTC (2 hours ago):

TAF ENGM 241700Z 2418/2518 VRB05KT CAVOK BECMG 2502/2504 01010KT PROB30 TEMPO 2507/2518 4000 -SN BKN010